createdAt,value
2019-04-21T00:01:50.683Z,98897.20
2019-04-21T00:04:34.632Z,98896.23
2019-04-21T00:07:13.152Z,98895.29
2019-04-21T00:09:53.741Z,98901.69
2019-04-21T00:12:22.001Z,98889.77
2019-04-21T00:14:46.776Z,98889.81
2019-04-21T00:17:12.914Z,98886.17
2019-04-21T00:19:45.967Z,98888.16
2019-04-21T00:22:30.162Z,98889.29
2019-04-21T00:25:08.958Z,98886.71
2019-04-21T00:27:38.655Z,98888.02
2019-04-21T00:30:16.084Z,98886.19
2019-04-21T00:32:38.098Z,98878.53
2019-04-21T00:35:04.748Z,98874.13
2019-04-21T00:37:53.187Z,98874.45
2019-04-21T00:40:25.690Z,98875.77
2019-04-21T00:42:55.676Z,98875.45
2019-04-21T00:45:26.349Z,98877.24
2019-04-21T00:48:03.889Z,98873.17
2019-04-21T00:50:40.417Z,98868.43
2019-04-21T00:53:16.906Z,98867.94
2019-04-21T00:55:50.052Z,98866.92
2019-04-21T00:58:28.675Z,98870.35
2019-04-21T01:00:58.569Z,98866.11
2019-04-21T01:03:47.439Z,98863.31
2019-04-21T01:06:03.683Z,98862.33
2019-04-21T01:08:32.757Z,98858.42
2019-04-21T01:11:01.508Z,98857.30
2019-04-21T01:13:45.625Z,98853.69
2019-04-21T01:16:22.365Z,98852.21
2019-04-21T01:18:46.290Z,98856.46
2019-04-21T01:20:59.167Z,98856.28
2019-04-21T01:23:29.831Z,98858.75
2019-04-21T01:26:14.668Z,98853.48
2019-04-21T01:28:52.455Z,98847.14
2019-04-21T01:31:22.734Z,98847.14
2019-04-21T01:33:57.495Z,98845.98
2019-04-21T01:36:25.786Z,98846.78
2019-04-21T01:39:08.392Z,98849.56
2019-04-21T01:41:43.121Z,98844.68
2019-04-21T01:44:05.030Z,98841.42
2019-04-21T01:46:33.952Z,98838.80
2019-04-21T01:49:04.433Z,98841.73
2019-04-21T01:51:59.673Z,98840.09
2019-04-21T01:54:45.532Z,98837.79
2019-04-21T01:57:34.696Z,98835.50
2019-04-21T02:00:02.350Z,98834.18
2019-04-21T02:02:43.332Z,98833.86
2019-04-21T02:05:17.533Z,98832.50
2019-04-21T02:07:49.148Z,98825.66
2019-04-21T02:10:27.397Z,98822.41
2019-04-21T02:12:50.923Z,98821.23
2019-04-21T02:15:31.281Z,98825.16
2019-04-21T02:17:59.620Z,98816.31
2019-04-21T02:20:24.413Z,98814.20
2019-04-21T02:25:39.733Z,98818.75
2019-04-21T02:28:16.355Z,98817.75
2019-04-21T02:31:00.770Z,98818.59
2019-04-21T02:36:00.522Z,98817.06
2019-04-21T02:38:30.148Z,98813.53
2019-04-21T02:43:25.620Z,98807.61
2019-04-21T02:46:04.460Z,98808.70
2019-04-21T02:48:38.874Z,98804.30
2019-04-21T02:51:10.705Z,98802.33
2019-04-21T02:56:22.675Z,98789.53
2019-04-21T02:59:03.037Z,98787.94
2019-04-21T03:04:34.872Z,98780.27
2019-04-21T03:09:46.160Z,98776.84
2019-04-21T03:22:31.688Z,98768.50
2019-04-21T03:27:56.932Z,98766.97
2019-04-21T03:33:23.477Z,98755.47
2019-04-21T03:38:00.248Z,98754.80
2019-04-21T03:40:26.636Z,98749.72
2019-04-21T03:42:57.198Z,98744.83
2019-04-21T03:45:31.081Z,98747.27
2019-04-21T03:48:04.735Z,98740.61
2019-04-21T03:50:37.231Z,98732.77
2019-04-21T03:53:16.767Z,98738.77
2019-04-21T04:01:05.847Z,98727.73
2019-04-21T04:06:24.579Z,98722.52
2019-04-21T04:14:35.546Z,98716.27
2019-04-21T04:19:44.683Z,98711.67
2019-04-21T04:22:14.645Z,98711.95
2019-04-21T04:24:39.574Z,98717.44
2019-04-21T04:27:21.320Z,98708.41
2019-04-21T04:29:48.360Z,98712.82
2019-04-21T04:32:16.571Z,98718.30
2019-04-21T04:34:58.864Z,98711.66
2019-04-21T04:40:13.651Z,98712.78
2019-04-21T04:43:11.687Z,98713.95
2019-04-21T04:50:49.481Z,98706.66
2019-04-21T04:53:22.274Z,98708.30
2019-04-21T04:56:02.179Z,98712.65
2019-04-21T04:58:54.653Z,98708.23
2019-04-21T05:01:14.628Z,98715.08
2019-04-21T05:19:16.093Z,98710.42
2019-04-21T05:21:55.472Z,98712.68
2019-04-21T05:24:12.417Z,98710.90
2019-04-21T05:26:43.449Z,98705.38
2019-04-21T05:29:10.573Z,98712.86
2019-04-21T05:32:09.173Z,98713.84
2019-04-21T05:34:49.295Z,98712.47
2019-04-21T05:37:28.543Z,98718.33
2019-04-21T05:40:00.521Z,98717.05
2019-04-21T05:42:35.367Z,98714.31
2019-04-21T05:45:17.417Z,98712.39
2019-04-21T05:48:02.743Z,98708.20
2019-04-21T05:50:27.992Z,98707.55
2019-04-21T05:52:53.665Z,98704.99
2019-04-21T05:55:54.596Z,98710.88
2019-04-21T05:58:08.646Z,98713.98
2019-04-21T06:01:09.458Z,98707.84
2019-04-21T06:03:26.749Z,98710.00
2019-04-21T06:08:27.105Z,98700.27
2019-04-21T06:11:02.086Z,98704.54
2019-04-21T06:13:36.418Z,98703.72
2019-04-21T06:16:05.849Z,98702.27
2019-04-21T06:18:42.086Z,98701.97
2019-04-21T06:23:49.641Z,98696.13
2019-04-21T06:26:28.186Z,98693.20
2019-04-21T06:29:03.978Z,98689.63
2019-04-21T06:33:59.730Z,98688.36
2019-04-21T06:37:07.938Z,98693.59
2019-04-21T06:39:48.221Z,98686.58
2019-04-21T06:42:09.048Z,98684.61
2019-04-21T06:44:48.475Z,98681.83
2019-04-21T06:47:26.632Z,98678.89
2019-04-21T06:49:47.498Z,98676.91
2019-04-21T06:52:43.545Z,98682.14
2019-04-21T06:54:57.266Z,98683.77
2019-04-21T06:57:34.775Z,98678.70
2019-04-21T06:59:59.977Z,98679.48
2019-04-21T07:03:00.042Z,98676.67
2019-04-21T07:05:14.094Z,98679.94
2019-04-21T07:07:55.194Z,98683.69
2019-04-21T07:10:20.998Z,98681.05
2019-04-21T07:12:58.968Z,98678.39
2019-04-21T07:15:41.023Z,98674.11
2019-04-21T07:18:08.352Z,98670.16
2019-04-21T07:20:44.956Z,98675.66
2019-04-21T07:23:16.398Z,98669.09
2019-04-21T07:25:51.179Z,98659.55
2019-04-21T07:28:25.581Z,98661.44
2019-04-21T07:31:00.739Z,98649.27
2019-04-21T07:33:52.377Z,98641.91
2019-04-21T07:35:55.793Z,98640.59
2019-04-21T07:38:36.289Z,98639.17
2019-04-21T07:41:02.568Z,98635.71
2019-04-21T07:43:35.631Z,98635.80
2019-04-21T07:46:06.772Z,98637.52
2019-04-21T07:48:50.113Z,98639.95
2019-04-21T07:51:50.640Z,98632.79
2019-04-21T07:54:23.847Z,98630.51
2019-04-21T07:56:38.281Z,98640.20
2019-04-21T07:59:39.637Z,98633.34
2019-04-21T08:02:00.805Z,98622.71
2019-04-21T08:07:26.621Z,98622.36
2019-04-21T08:09:46.762Z,98625.72
2019-04-21T08:12:20.325Z,98623.23
2019-04-21T08:15:13.998Z,98622.89
2019-04-21T08:17:36.489Z,98618.69
2019-04-21T08:20:09.266Z,98615.48
2019-04-21T08:22:48.038Z,98616.14
2019-04-21T08:25:14.915Z,98614.53
2019-04-21T08:27:56.995Z,98615.09
2019-04-21T08:30:28.799Z,98615.22
2019-04-21T08:36:03.103Z,98602.84
2019-04-21T08:38:08.840Z,98605.09
2019-04-21T08:40:55.880Z,98604.69
2019-04-21T08:43:20.829Z,98603.37
2019-04-21T08:45:52.431Z,98601.15
2019-04-21T08:48:22.615Z,98589.63
2019-04-21T08:51:07.744Z,98589.84
2019-04-21T08:53:50.625Z,98592.77
2019-04-21T08:56:21.410Z,98585.27
2019-04-21T08:59:24.289Z,98586.21
2019-04-21T09:02:06.363Z,98587.52
2019-04-21T09:04:41.208Z,98582.56
2019-04-21T09:07:21.446Z,98572.20
2019-04-21T09:09:47.413Z,98569.05
2019-04-21T09:12:15.026Z,98572.21
2019-04-21T09:14:50.671Z,98564.83
2019-04-21T09:17:15.143Z,98558.30
2019-04-21T09:22:30.691Z,98555.20
2019-04-21T09:25:05.885Z,98541.22
2019-04-21T09:27:30.753Z,98541.69
2019-04-21T09:29:54.040Z,98538.63
2019-04-21T09:32:23.852Z,98540.23
2019-04-21T09:34:53.872Z,98534.97
2019-04-21T09:37:37.942Z,98533.69
2019-04-21T09:39:57.848Z,98527.98
2019-04-21T09:42:35.986Z,98527.19
2019-04-21T09:45:04.925Z,98530.32
2019-04-21T09:47:41.793Z,98520.14
2019-04-21T09:50:06.737Z,98524.25
2019-04-21T09:52:44.847Z,98519.16
2019-04-21T09:55:15.974Z,98525.63
2019-04-21T09:57:51.590Z,98517.42
2019-04-21T10:00:21.081Z,98512.76
2019-04-21T10:02:58.633Z,98513.22
2019-04-21T10:05:25.078Z,98510.07
2019-04-21T10:07:55.829Z,98504.69
2019-04-21T10:10:27.516Z,98504.88
2019-04-21T10:12:58.348Z,98499.45
2019-04-21T10:15:29.800Z,98498.34
2019-04-21T10:18:03.527Z,98500.97
2019-04-21T10:20:34.145Z,98493.09
2019-04-21T10:23:05.023Z,98484.00
2019-04-21T10:25:36.801Z,98477.89
2019-04-21T10:28:07.501Z,98478.49
2019-04-21T10:30:38.501Z,98470.91
2019-04-21T10:33:10.372Z,98465.46
2019-04-21T10:35:41.352Z,98468.37
2019-04-21T10:38:22.969Z,98462.98
2019-04-21T10:40:45.268Z,98457.31
2019-04-21T10:43:20.308Z,98441.05
2019-04-21T10:45:48.864Z,98440.61
2019-04-21T10:48:20.916Z,98449.94
2019-04-21T10:50:52.686Z,98438.03
2019-04-21T10:53:27.019Z,98431.24
2019-04-21T10:56:11.445Z,98422.58
2019-04-21T10:58:34.048Z,98420.74
2019-04-21T11:01:16.803Z,98422.76
2019-04-21T11:04:07.502Z,98420.20
2019-04-21T11:06:37.098Z,98420.79
2019-04-21T11:09:10.937Z,98422.45
2019-04-21T11:11:44.570Z,98412.27
2019-04-21T11:14:13.940Z,98413.36
2019-04-21T11:16:47.254Z,98410.35
2019-04-21T11:19:17.959Z,98411.81
2019-04-21T11:21:49.310Z,98405.90
2019-04-21T11:24:20.899Z,98396.42
2019-04-21T11:26:51.946Z,98391.97
2019-04-21T11:29:23.288Z,98383.56
2019-04-21T11:31:54.864Z,98389.02
2019-04-21T11:34:25.577Z,98379.70
2019-04-21T11:36:58.374Z,98372.21
2019-04-21T11:39:39.510Z,98368.97
2019-04-21T11:42:07.831Z,98370.37
2019-04-21T11:44:39.510Z,98364.54
2019-04-21T11:47:16.568Z,98360.41
2019-04-21T11:49:47.226Z,98360.81
2019-04-21T11:52:19.169Z,98362.10
2019-04-21T11:54:50.945Z,98352.81
2019-04-21T11:57:27.867Z,98357.16
2019-04-21T11:59:53.880Z,98359.81
2019-04-21T12:02:25.676Z,98342.17
2019-04-21T12:04:57.247Z,98342.69
2019-04-21T12:07:29.233Z,98339.87
2019-04-21T12:09:59.955Z,98344.02
2019-04-21T12:12:30.574Z,98342.50
2019-04-21T12:15:01.931Z,98343.66
2019-04-21T12:17:34.090Z,98340.23
2019-04-21T12:20:06.450Z,98330.21
2019-04-21T12:22:37.450Z,98330.38
2019-04-21T12:25:13.314Z,98330.38
2019-04-21T12:27:43.968Z,98323.60
2019-04-21T12:30:15.656Z,98325.34
2019-04-21T12:32:51.946Z,98325.16
2019-04-21T12:35:23.844Z,98316.41
2019-04-21T12:37:55.015Z,98305.73
2019-04-21T12:40:26.833Z,98298.02
2019-04-21T12:42:58.529Z,98300.87
2019-04-21T12:45:29.573Z,98296.36
2019-04-21T12:48:00.166Z,98301.94
2019-04-21T12:50:32.048Z,98293.96
2019-04-21T12:53:03.315Z,98287.60
2019-04-21T12:55:37.010Z,98289.88
2019-04-21T12:58:07.715Z,98278.55
2019-04-21T13:00:40.986Z,98280.10
2019-04-21T13:03:11.930Z,98282.23
2019-04-21T13:05:43.408Z,98268.92
2019-04-21T13:08:15.358Z,98260.44
2019-04-21T13:10:46.407Z,98259.99
2019-04-21T13:13:19.729Z,98261.61
2019-04-21T13:15:49.511Z,98260.19
2019-04-21T13:18:20.605Z,98254.63
2019-04-21T13:20:51.868Z,98239.39
2019-04-21T13:23:23.151Z,98242.61
2019-04-21T13:25:54.122Z,98238.98
2019-04-21T13:28:24.986Z,98237.72
2019-04-21T13:30:56.055Z,98235.69
2019-04-21T13:33:27.143Z,98234.13
2019-04-21T13:35:59.262Z,98238.72
2019-04-21T13:38:36.904Z,98228.95
2019-04-21T13:41:32.630Z,98221.86
2019-04-21T13:44:15.900Z,98214.57
2019-04-21T13:46:49.204Z,98210.30
2019-04-21T13:49:21.138Z,98213.92
2019-04-21T13:51:52.044Z,98204.14
2019-04-21T13:54:22.570Z,98211.11
2019-04-21T13:56:54.391Z,98211.12
2019-04-21T13:59:26.322Z,98204.45
2019-04-21T14:01:58.274Z,98202.03
2019-04-21T14:04:29.533Z,98187.87
2019-04-21T14:07:00.565Z,98187.89
2019-04-21T14:09:40.287Z,98180.68
2019-04-21T14:12:03.572Z,98180.16
2019-04-21T14:14:36.606Z,98172.46
2019-04-21T14:17:07.258Z,98174.06
2019-04-21T14:19:37.773Z,98165.51
2019-04-21T14:22:10.309Z,98165.25
2019-04-21T14:24:41.633Z,98163.92
2019-04-21T14:27:12.377Z,98170.03
2019-04-21T14:29:43.856Z,98170.03
2019-04-21T14:32:16.014Z,98163.90
2019-04-21T14:34:49.881Z,98157.75
2019-04-21T14:37:20.170Z,98152.93
2019-04-21T14:39:59.487Z,98158.03
2019-04-21T14:42:24.324Z,98164.41
2019-04-21T14:44:54.903Z,98150.52
2019-04-21T14:47:59.373Z,98148.63
2019-04-21T14:50:50.430Z,98153.41
2019-04-21T14:53:25.541Z,98141.66
2019-04-21T14:55:57.526Z,98131.25
2019-04-21T14:58:28.294Z,98132.55
2019-04-21T15:01:06.026Z,98132.27
2019-04-21T15:03:39.296Z,98127.12
2019-04-21T15:06:11.495Z,98121.48
2019-04-21T15:08:42.958Z,98117.97
2019-04-21T15:11:13.980Z,98124.39
2019-04-21T15:13:45.836Z,98117.72
2019-04-21T15:16:19.004Z,98116.61
2019-04-21T15:18:50.633Z,98110.98
2019-04-21T15:21:21.616Z,98110.42
2019-04-21T15:23:52.383Z,98111.47
2019-04-21T15:26:24.132Z,98096.22
2019-04-21T15:28:55.041Z,98100.73
2019-04-21T15:31:30.555Z,98096.44
2019-04-21T15:33:59.084Z,98089.70
2019-04-21T15:36:33.126Z,98088.33
2019-04-21T15:39:03.546Z,98082.42
2019-04-21T15:41:34.479Z,98080.58
2019-04-21T15:44:09.770Z,98078.91
2019-04-21T15:46:43.971Z,98078.34
2019-04-21T15:49:15.413Z,98074.33
2019-04-21T15:51:46.415Z,98073.32
2019-04-21T15:54:18.453Z,98072.03
2019-04-21T15:56:58.608Z,98065.66
2019-04-21T15:59:46.424Z,98061.69
2019-04-21T16:02:34.873Z,98059.81
2019-04-21T16:05:06.596Z,98058.55
2019-04-21T16:07:38.067Z,98048.96
2019-04-21T16:10:11.826Z,98053.84
2019-04-21T16:12:43.642Z,98056.28
2019-04-21T16:15:16.700Z,98059.23
2019-04-21T16:17:48.793Z,98052.31
2019-04-21T16:20:21.977Z,98050.98
2019-04-21T16:22:52.901Z,98051.56
2019-04-21T16:25:23.563Z,98047.30
2019-04-21T16:27:55.196Z,98043.84
2019-04-21T16:30:26.167Z,98042.26
2019-04-21T16:32:57.728Z,98039.58
2019-04-21T16:35:29.582Z,98043.83
2019-04-21T16:38:01.235Z,98044.39
2019-04-21T16:40:43.059Z,98039.86
2019-04-21T16:43:05.962Z,98033.97
2019-04-21T16:45:37.022Z,98023.05
2019-04-21T16:48:07.621Z,98032.15
2019-04-21T16:50:39.375Z,98033.48
2019-04-21T16:53:19.932Z,98023.09
2019-04-21T16:55:55.174Z,98028.98
2019-04-21T16:59:00.882Z,98026.31
2019-04-21T17:01:31.952Z,98024.77
2019-04-21T17:04:02.671Z,98026.14
2019-04-21T17:06:33.343Z,98021.33
2019-04-21T17:09:05.041Z,98020.29
2019-04-21T17:11:39.218Z,98013.34
2019-04-21T17:14:30.075Z,98008.27
2019-04-21T17:17:04.001Z,98005.61
2019-04-21T17:19:20.015Z,98006.95
2019-04-21T17:21:45.692Z,98009.63
2019-04-21T17:24:16.732Z,98004.02
2019-04-21T17:26:48.187Z,98008.30
2019-04-21T17:29:20.857Z,98007.49
2019-04-21T17:31:53.156Z,98002.95
2019-04-21T17:34:27.696Z,97995.73
2019-04-21T17:36:57.203Z,97999.98
2019-04-21T17:39:28.931Z,97998.92
2019-04-21T17:42:12.976Z,97997.84
2019-04-21T17:44:33.040Z,97996.98
2019-04-21T17:47:13.292Z,97988.95
2019-04-21T17:49:37.212Z,97987.09
2019-04-21T17:52:25.477Z,97991.02
2019-04-21T17:55:10.307Z,97994.39
2019-04-21T17:57:59.461Z,97992.48
2019-04-21T18:00:52.954Z,97990.01
2019-04-21T18:02:59.000Z,97998.47
2019-04-21T18:05:39.355Z,97998.37
2019-04-21T18:08:11.321Z,98001.16
2019-04-21T18:10:37.373Z,97998.95
2019-04-21T18:13:01.332Z,98003.20
2019-04-21T18:15:44.357Z,98003.59
2019-04-21T18:17:58.760Z,98008.30
2019-04-21T18:20:32.319Z,98001.50
2019-04-21T18:23:34.920Z,98009.81
2019-04-21T18:26:00.033Z,98007.31
2019-04-21T18:28:23.627Z,98003.15
2019-04-21T18:31:04.660Z,98010.58
2019-04-21T18:33:40.484Z,98013.83
2019-04-21T18:36:25.391Z,98009.67
2019-04-21T18:39:37.867Z,98010.53
2019-04-21T18:42:17.550Z,98015.50
2019-04-21T18:48:12.450Z,98012.95
2019-04-21T18:50:47.806Z,98010.38
2019-04-21T18:53:32.546Z,98007.45
2019-04-21T18:55:56.212Z,98017.77
2019-04-21T18:58:22.163Z,98016.24
2019-04-21T19:01:03.240Z,98015.78
2019-04-21T19:03:35.801Z,98011.86
2019-04-21T19:06:08.545Z,98016.16
2019-04-21T19:08:57.775Z,98021.35
2019-04-21T19:11:23.731Z,98024.14
2019-04-21T19:14:20.913Z,98019.75
2019-04-21T19:19:36.656Z,98023.94
2019-04-21T19:21:46.956Z,98022.14
2019-04-21T19:24:27.557Z,98025.98
2019-04-21T19:31:59.939Z,98025.80
2019-04-21T19:34:18.649Z,98034.23
2019-04-21T19:36:51.148Z,98027.34
2019-04-21T19:39:33.267Z,98029.25
2019-04-21T19:42:00.312Z,98021.19
2019-04-21T19:44:45.637Z,98019.59
2019-04-21T19:47:19.846Z,98023.36
2019-04-21T19:49:52.562Z,98026.09
2019-04-21T19:52:09.421Z,98020.20
2019-04-21T19:54:41.202Z,98017.48
2019-04-21T19:57:09.033Z,98014.84
2019-04-21T19:59:48.082Z,98016.36
2019-04-21T20:02:14.317Z,98015.64
2019-04-21T20:04:52.218Z,98013.66
2019-04-21T20:07:34.290Z,98015.08
2019-04-21T20:10:14.385Z,98007.04
2019-04-21T20:12:45.120Z,98007.28
2019-04-21T20:15:20.326Z,98003.17
2019-04-21T20:17:42.244Z,98003.61
2019-04-21T20:20:00.661Z,98001.80
2019-04-21T20:22:36.863Z,98003.05
2019-04-21T20:25:11.631Z,97999.00
2019-04-21T20:27:45.203Z,98001.80
2019-04-21T20:30:31.063Z,97997.28
2019-04-21T20:33:14.170Z,97997.36
2019-04-21T20:35:48.539Z,97997.86
2019-04-21T20:38:01.975Z,98004.01
2019-04-21T20:40:33.359Z,97997.82
2019-04-21T20:43:23.680Z,97999.78
2019-04-21T20:45:45.833Z,98003.16
2019-04-21T20:48:10.468Z,98003.57
2019-04-21T20:50:43.496Z,98007.29
2019-04-21T20:53:19.848Z,98005.02
2019-04-21T20:55:54.258Z,98004.20
2019-04-21T20:58:26.005Z,97999.50
2019-04-21T21:03:37.771Z,98001.81
2019-04-21T21:05:52.979Z,98002.87
2019-04-21T21:08:38.589Z,98002.06
2019-04-21T21:11:00.311Z,97998.47
2019-04-21T21:13:42.799Z,97996.70
2019-04-21T21:16:41.460Z,97997.76
2019-04-21T21:21:22.434Z,97996.50
2019-04-21T21:23:52.757Z,97993.02
2019-04-21T21:26:30.700Z,97989.14
2019-04-21T21:28:54.044Z,97988.36
2019-04-21T21:31:31.322Z,97990.10
2019-04-21T21:34:11.883Z,97987.11
2019-04-21T21:36:38.254Z,97980.70
2019-04-21T21:39:09.648Z,97984.14
2019-04-21T21:41:29.861Z,97994.48
2019-04-21T21:44:03.923Z,97984.41
2019-04-21T21:46:45.572Z,97988.44
2019-04-21T21:49:08.459Z,97989.83
2019-04-21T21:51:44.980Z,97984.38
2019-04-21T21:54:07.594Z,97983.89
2019-04-21T21:56:38.535Z,97983.82
2019-04-21T21:59:15.074Z,97983.31
2019-04-21T22:01:47.148Z,97980.58
2019-04-21T22:04:20.897Z,97980.91
2019-04-21T22:06:55.380Z,97981.41
2019-04-21T22:09:19.734Z,97978.79
2019-04-21T22:11:56.301Z,97977.18
2019-04-21T22:14:32.890Z,97975.67
2019-04-21T22:19:52.241Z,97972.03
2019-04-21T22:22:17.919Z,97971.71
2019-04-21T22:24:50.768Z,97969.27
2019-04-21T22:27:09.447Z,97969.80
2019-04-21T22:29:45.350Z,97969.67
2019-04-21T22:32:17.376Z,97970.79
2019-04-21T22:34:53.974Z,97969.91
2019-04-21T22:37:29.951Z,97972.36
2019-04-21T22:40:07.142Z,97968.01
2019-04-21T22:42:31.238Z,97970.62
2019-04-21T22:44:58.576Z,97967.48
2019-04-21T22:47:33.772Z,97963.65
2019-04-21T22:50:02.670Z,97964.27
2019-04-21T22:52:33.780Z,97964.78
2019-04-21T22:55:13.496Z,97969.47
2019-04-21T22:57:43.414Z,97965.63
2019-04-21T23:00:15.350Z,97962.17
2019-04-21T23:02:46.914Z,97960.71
2019-04-21T23:05:22.497Z,97960.69
2019-04-21T23:07:55.210Z,97960.50
2019-04-21T23:10:25.320Z,97958.05
2019-04-21T23:12:59.534Z,97957.94
2019-04-21T23:15:37.648Z,97952.44
2019-04-21T23:18:22.987Z,97952.08
2019-04-21T23:20:53.566Z,97947.67
2019-04-21T23:23:29.692Z,97946.36
2019-04-21T23:25:53.105Z,97944.21
2019-04-21T23:28:34.582Z,97944.14
2019-04-21T23:31:03.602Z,97938.55
2019-04-21T23:33:18.021Z,97934.87
2019-04-21T23:35:49.262Z,97932.44
2019-04-21T23:38:26.531Z,97937.25
2019-04-21T23:40:57.880Z,97930.53
2019-04-21T23:43:27.495Z,97925.62
2019-04-21T23:45:57.277Z,97930.47
2019-04-21T23:48:39.073Z,97934.20
2019-04-21T23:51:13.503Z,97932.20
2019-04-21T23:53:33.428Z,97922.47
2019-04-21T23:56:13.464Z,97927.67
2019-04-21T23:58:44.901Z,97927.06
